Startpagina
METAR-TAF:

METAR-TAF

Vliegvelden :

Koeweit, Koeweit

breedte: 29-13N, lengte: 047-59E, hoogte: 55 m

Actueel weer

Dit bericht is 59 minuten geleden gemaakt, om 12:00 UTC
Wind 11 kt uit het noorden
Temperatuur 27°C
Vochtigheid 32%
Druk 1010 hPa
Zicht 10 km of meer
geen wolken onder 1500 m en geen cumulonimbus

METAR: OKBK 221200Z 35011KT CAVOK 27/09 Q1010 NOSIG

Tijdstip: 15:59 (12:59 UTC)

Verwachting

Dit bericht is 2 uur en het 14 minuten geleden gemaakt, om 10:45 UTC
Verwachting geldig van 22 om 12 UTC tot 23 om 18 UTC
Wind 10 kt uit het noordnoordwesten met uitschieters tot 20 kt
Zicht: 7000 m
Verspreide wolken op 4000 ft
Gebroken wolken op 8000 ft
Tijdelijke
van 22 om 12 UTC tot 22 om 23 UTC
Zicht: 4000 m
Weinig wolken op 2500 ft, Cumulonimbus.
onweer, lichte regen

TAF: OKBK 221045Z 2212/2318 34010G20KT 7000 SCT040 BKN080 TEMPO 2212/2223 4000 -TSRA FEW025CB

Waarnemingen en weersverwachtingen van meer dan 4000 vliegvelden (METAR en TAF).

De beschikbare stations zijn de gele en rode punten op de kaart.

Ga met uw muis naar het station om de naam te zien.

Klik dan om waarnemingen en weersverwachtingen te zien.

kaart wijzigen: klik op de groene knoppen met een zwart kruis om in te zoomen, op de groene knop met een streepje om uit te zoomen of op de groene pijlen voor aangrenzende kaarten.


METAR-TAF: